createdAt,value
2022-12-05T00:44:25.336Z,21.52
2022-12-05T00:47:25.562Z,17.67
2022-12-05T00:49:59.038Z,20.90
2022-12-05T00:52:53.751Z,21.25
2022-12-05T00:55:20.748Z,19.65
2022-12-05T00:57:47.977Z,19.67
2022-12-05T01:00:15.960Z,19.38
2022-12-05T01:02:43.269Z,17.50
2022-12-05T01:05:10.378Z,20.63
2022-12-05T01:07:37.644Z,17.95
2022-12-05T01:10:05.636Z,17.83
2022-12-05T01:12:33.669Z,17.92
2022-12-05T01:15:00.687Z,17.52
2022-12-05T01:17:28.057Z,19.73
2022-12-05T01:19:55.107Z,20.20
2022-12-05T01:22:22.449Z,15.73
2022-12-05T01:24:49.464Z,17.38
2022-12-05T01:27:16.688Z,17.48
2022-12-05T01:29:43.644Z,15.20
2022-12-05T01:32:10.936Z,16.70
2022-12-05T01:34:37.949Z,14.75
2022-12-05T01:37:05.093Z,14.63
2022-12-05T01:39:32.136Z,14.98
2022-12-05T01:41:59.595Z,15.02
2022-12-05T01:44:26.454Z,15.70
2022-12-05T01:46:56.054Z,16.50
2022-12-05T01:49:39.208Z,13.77
2022-12-05T01:52:18.891Z,14.32
2022-12-05T01:54:50.376Z,15.60
2022-12-05T01:57:18.087Z,15.65
2022-12-05T01:59:51.668Z,14.90
2022-12-05T02:02:20.211Z,15.30
2022-12-05T02:05:11.444Z,13.68
2022-12-05T02:07:41.239Z,14.00
2022-12-05T02:10:21.080Z,14.73
2022-12-05T02:12:52.084Z,14.10
2022-12-05T02:15:33.862Z,14.25
2022-12-05T02:18:39.260Z,15.55
2022-12-05T02:21:43.832Z,15.85
2022-12-05T02:24:58.020Z,12.32
2022-12-05T02:27:57.437Z,14.38
2022-12-05T02:30:26.776Z,14.63
2022-12-05T02:32:59.744Z,15.57
2022-12-05T02:35:50.926Z,14.88
2022-12-05T02:38:28.741Z,15.73
2022-12-05T02:41:12.453Z,16.40
2022-12-05T02:43:59.843Z,13.30
2022-12-05T02:46:33.161Z,15.13
2022-12-05T02:49:10.256Z,16.92
2022-12-05T02:51:46.770Z,15.98
2022-12-05T02:54:23.853Z,16.17
2022-12-05T02:56:54.927Z,17.15
2022-12-05T02:59:23.772Z,16.83
2022-12-05T03:01:52.469Z,18.00
2022-12-05T03:04:24.251Z,17.20
2022-12-05T03:07:07.111Z,17.50
2022-12-05T03:09:44.385Z,17.08
2022-12-05T03:12:26.095Z,16.15
2022-12-05T03:15:22.974Z,16.70
2022-12-05T03:18:08.184Z,16.85
2022-12-05T03:20:48.500Z,14.93
2022-12-05T03:23:29.447Z,23.58
2022-12-05T03:26:14.317Z,21.70
2022-12-05T03:29:07.840Z,16.80
2022-12-05T03:32:10.815Z,17.58
2022-12-05T03:35:06.497Z,18.90
2022-12-05T03:37:47.327Z,14.90
2022-12-05T03:40:47.492Z,17.00
2022-12-05T03:43:34.508Z,24.67
2022-12-05T03:46:26.192Z,16.67
2022-12-05T03:49:02.760Z,30.05
2022-12-05T03:51:53.218Z,46.53
2022-12-05T03:54:29.812Z,43.13
2022-12-05T03:57:55.759Z,28.38
2022-12-05T04:00:24.637Z,49.47
2022-12-05T04:03:23.014Z,56.38
2022-12-05T04:05:57.658Z,25.85
2022-12-05T04:08:44.385Z,25.13
2022-12-05T04:11:18.520Z,27.50
2022-12-05T04:14:06.684Z,17.88
2022-12-05T04:17:04.642Z,23.88
2022-12-05T04:20:04.904Z,17.65
2022-12-05T04:22:34.353Z,15.98
2022-12-05T04:25:24.095Z,16.15
2022-12-05T04:28:19.599Z,32.70
2022-12-05T04:31:03.708Z,17.45
2022-12-05T04:33:50.270Z,24.25
2022-12-05T04:36:40.604Z,15.65
2022-12-05T04:39:26.127Z,20.10
2022-12-05T04:41:57.676Z,16.48
2022-12-05T04:44:35.115Z,20.70
2022-12-05T04:47:07.362Z,21.67
2022-12-05T04:49:37.888Z,20.60
2022-12-05T04:52:10.475Z,15.98
2022-12-05T04:54:59.400Z,14.68
2022-12-05T04:57:42.356Z,18.15
2022-12-05T05:02:58.111Z,16.42
2022-12-05T05:05:27.595Z,16.10
2022-12-05T05:07:55.652Z,15.30
2022-12-05T05:10:37.691Z,17.08
2022-12-05T05:13:05.109Z,17.23
2022-12-05T05:15:32.003Z,17.20
2022-12-05T05:17:59.260Z,18.60
2022-12-05T05:20:27.258Z,17.67
2022-12-05T05:22:57.135Z,15.32
2022-12-05T05:25:25.826Z,15.88
2022-12-05T05:27:56.159Z,16.48
2022-12-05T05:30:24.788Z,15.82
2022-12-05T05:32:52.449Z,17.05
2022-12-05T05:35:20.252Z,17.40
2022-12-05T05:37:47.820Z,16.15
2022-12-05T05:40:15.184Z,14.85
2022-12-05T05:42:50.769Z,14.70
2022-12-05T05:45:18.374Z,17.90
2022-12-05T05:47:48.516Z,15.95
2022-12-05T05:50:21.110Z,16.90
2022-12-05T05:52:49.503Z,16.27
2022-12-05T05:55:16.494Z,16.13
2022-12-05T05:57:43.683Z,18.10
2022-12-05T06:00:11.387Z,16.42
2022-12-05T06:02:38.892Z,15.82
2022-12-05T06:05:06.777Z,17.10
2022-12-05T06:07:34.349Z,17.23
2022-12-05T06:10:02.552Z,17.45
2022-12-05T06:12:29.932Z,16.95
2022-12-05T06:14:56.967Z,16.33
2022-12-05T06:17:24.252Z,18.88
2022-12-05T06:19:51.707Z,18.52
2022-12-05T06:22:19.291Z,17.75
2022-12-05T06:24:46.385Z,20.33
2022-12-05T06:27:13.801Z,15.55
2022-12-05T06:29:40.929Z,16.58
2022-12-05T06:32:09.154Z,17.38
2022-12-05T06:34:36.737Z,16.90
2022-12-05T06:37:04.461Z,15.85
2022-12-05T06:39:31.484Z,16.83
2022-12-05T06:41:59.035Z,16.92
2022-12-05T06:44:27.077Z,14.48
2022-12-05T06:46:55.704Z,15.77
2022-12-05T06:49:31.713Z,17.65
2022-12-05T06:52:02.365Z,19.40
2022-12-05T06:54:29.244Z,17.23
2022-12-05T06:56:56.484Z,18.83
2022-12-05T06:59:23.521Z,17.98
2022-12-05T07:01:51.310Z,16.88
2022-12-05T07:04:26.947Z,18.70
2022-12-05T07:06:56.333Z,16.15
2022-12-05T07:09:45.802Z,19.30
2022-12-05T07:12:16.852Z,19.25
2022-12-05T07:14:48.973Z,22.00
2022-12-05T07:17:22.047Z,21.60
2022-12-05T07:19:50.313Z,16.42
2022-12-05T07:22:20.333Z,18.10
2022-12-05T07:24:48.571Z,20.20
2022-12-05T07:27:16.446Z,21.73
2022-12-05T07:29:44.685Z,21.60
2022-12-05T07:32:11.949Z,19.80
2022-12-05T07:34:39.026Z,20.92
2022-12-05T07:37:06.395Z,20.58
2022-12-05T07:39:33.436Z,23.17
2022-12-05T07:42:00.720Z,22.17
2022-12-05T07:44:29.130Z,21.17
2022-12-05T07:46:56.562Z,22.45
2022-12-05T07:49:23.537Z,21.50
2022-12-05T07:51:51.116Z,20.48
2022-12-05T07:54:18.252Z,21.70
2022-12-05T07:56:47.983Z,19.65
2022-12-05T07:59:15.249Z,21.23
2022-12-05T08:01:42.588Z,21.35
2022-12-05T08:04:15.065Z,21.75
2022-12-05T08:06:43.420Z,21.67
2022-12-05T08:09:10.372Z,23.08
2022-12-05T08:11:40.972Z,17.13
2022-12-05T08:14:09.451Z,15.50
2022-12-05T08:16:36.793Z,17.10
2022-12-05T08:19:12.881Z,18.73
2022-12-05T08:21:40.476Z,16.88
2022-12-05T08:24:08.224Z,14.68
2022-12-05T08:26:37.947Z,14.40
2022-12-05T08:29:12.053Z,18.70
2022-12-05T08:31:47.574Z,16.20
2022-12-05T08:34:17.513Z,17.92
2022-12-05T08:36:45.554Z,15.30
2022-12-05T08:39:16.500Z,14.73
2022-12-05T08:41:46.399Z,14.25
2022-12-05T08:44:16.970Z,14.75
2022-12-05T08:46:48.603Z,14.43
2022-12-05T08:49:17.103Z,18.55
2022-12-05T08:51:45.105Z,15.50
2022-12-05T08:54:12.675Z,19.20
2022-12-05T08:56:40.368Z,19.20
2022-12-05T08:59:08.004Z,16.08
2022-12-05T09:01:38.451Z,19.50
2022-12-05T09:04:06.826Z,19.73
2022-12-05T09:06:34.897Z,17.60
2022-12-05T09:09:08.313Z,16.08
2022-12-05T09:11:41.403Z,19.15
2022-12-05T09:14:08.825Z,18.65
2022-12-05T09:16:39.250Z,18.92
2022-12-05T09:19:14.557Z,18.33
2022-12-05T09:21:43.561Z,15.52
2022-12-05T09:24:13.203Z,14.77
2022-12-05T09:26:41.740Z,18.90
2022-12-05T09:29:16.234Z,19.85
2022-12-05T09:31:48.705Z,16.15
2022-12-05T09:34:18.190Z,18.88
2022-12-05T09:36:55.697Z,17.40
2022-12-05T09:39:28.660Z,11.32
2022-12-05T09:42:46.126Z,16.95
2022-12-05T09:45:40.039Z,17.83
2022-12-05T09:48:16.230Z,17.92
2022-12-05T09:51:02.921Z,17.27
2022-12-05T09:53:43.641Z,16.00
2022-12-05T09:56:27.845Z,19.55
2022-12-05T09:58:58.355Z,17.10
2022-12-05T10:01:42.354Z,18.83
2022-12-05T10:05:00.432Z,20.25
2022-12-05T10:08:21.108Z,17.40
2022-12-05T10:11:11.696Z,19.73
2022-12-05T10:14:01.263Z,19.52
2022-12-05T10:16:40.949Z,19.83
2022-12-05T10:19:47.856Z,22.27
2022-12-05T10:22:28.769Z,25.25
2022-12-05T10:25:03.214Z,20.67
2022-12-05T10:27:40.222Z,21.48
2022-12-05T10:30:17.613Z,20.33
2022-12-05T10:33:09.542Z,20.83
2022-12-05T10:35:40.927Z,22.73
2022-12-05T10:38:25.543Z,20.40
2022-12-05T10:40:58.200Z,19.50
2022-12-05T10:43:33.105Z,19.48
2022-12-05T10:46:07.150Z,20.13
2022-12-05T10:48:39.924Z,19.55
2022-12-05T10:51:13.705Z,19.95
2022-12-05T10:53:49.640Z,20.23
2022-12-05T10:56:39.592Z,18.05
2022-12-05T10:59:11.509Z,16.98
2022-12-05T11:01:49.163Z,18.58
2022-12-05T11:04:40.225Z,18.92
2022-12-05T11:07:07.384Z,15.32
2022-12-05T11:09:38.899Z,16.33
2022-12-05T11:12:26.064Z,20.42
2022-12-05T11:15:16.474Z,16.83
2022-12-05T11:17:43.720Z,16.70
2022-12-05T11:20:19.758Z,15.75
2022-12-05T11:22:50.690Z,14.25
2022-12-05T11:25:35.243Z,14.35
2022-12-05T11:28:18.095Z,15.07
2022-12-05T11:31:20.845Z,20.33
2022-12-05T11:34:15.138Z,18.35
2022-12-05T11:36:58.432Z,19.50
2022-12-05T11:39:26.091Z,20.17
2022-12-05T11:42:22.961Z,19.33
2022-12-05T11:45:30.259Z,20.38
2022-12-05T11:48:17.384Z,15.45
2022-12-05T11:51:15.830Z,19.13
2022-12-05T11:54:35.552Z,20.35
2022-12-05T11:57:46.123Z,17.98
2022-12-05T12:01:11.451Z,17.13
2022-12-05T12:04:12.042Z,18.83
2022-12-05T12:08:05.402Z,18.85
2022-12-05T12:11:10.490Z,18.45
2022-12-05T12:14:47.394Z,13.68
2022-12-05T12:18:04.518Z,15.45
2022-12-05T12:20:51.356Z,18.50
2022-12-05T12:33:16.861Z,14.95
2022-12-05T12:37:11.982Z,18.13
2022-12-05T12:40:18.334Z,15.75
2022-12-05T12:43:51.660Z,12.48
2022-12-05T12:46:42.719Z,18.63
2022-12-05T12:50:02.986Z,11.68
2022-12-05T12:53:25.252Z,11.00
2022-12-05T12:56:30.739Z,16.42
2022-12-05T12:59:22.432Z,16.50
2022-12-05T13:02:00.933Z,16.48
2022-12-05T13:04:40.438Z,12.82
2022-12-05T13:07:36.470Z,12.40
2022-12-05T13:10:55.835Z,11.18
2022-12-05T13:14:15.304Z,14.90
2022-12-05T13:16:50.325Z,14.88
2022-12-05T13:19:44.327Z,14.57
2022-12-05T13:22:13.838Z,11.82
2022-12-05T13:24:42.493Z,12.63
2022-12-05T13:27:18.788Z,14.10
2022-12-05T13:30:03.305Z,16.55
2022-12-05T13:32:37.522Z,13.27
2022-12-05T13:35:07.552Z,11.23
2022-12-05T13:37:54.822Z,11.15
2022-12-05T13:40:54.160Z,10.10
2022-12-05T13:43:30.122Z,9.60
2022-12-05T13:46:09.528Z,9.65
2022-12-05T13:48:46.745Z,9.75
2022-12-05T13:51:37.023Z,8.68
2022-12-05T13:54:15.390Z,8.75
2022-12-05T13:57:02.959Z,8.60
2022-12-05T14:00:23.248Z,8.80
2022-12-05T14:03:04.380Z,9.70
2022-12-05T14:05:48.167Z,9.10
2022-12-05T14:08:39.516Z,9.35
2022-12-05T14:11:11.983Z,9.02
2022-12-05T14:13:43.492Z,9.43
2022-12-05T14:16:26.447Z,9.23
2022-12-05T14:19:21.366Z,12.65
2022-12-05T14:22:37.317Z,14.93
2022-12-05T14:25:17.287Z,15.45
2022-12-05T14:28:12.914Z,16.17
2022-12-05T14:31:34.379Z,17.73
2022-12-05T14:34:57.494Z,18.30
2022-12-05T14:37:48.450Z,19.70
2022-12-05T14:40:42.144Z,22.20
2022-12-05T14:43:27.029Z,23.02
2022-12-05T14:46:02.076Z,24.10
2022-12-05T14:48:33.506Z,24.13
2022-12-05T14:51:22.675Z,24.42
2022-12-05T14:53:51.072Z,23.65
2022-12-05T14:56:27.109Z,25.42
2022-12-05T14:59:13.113Z,24.48
2022-12-05T15:01:50.956Z,24.25
2022-12-05T15:04:24.369Z,23.67
2022-12-05T15:07:02.570Z,23.00
2022-12-05T15:09:37.681Z,21.67
2022-12-05T15:12:16.852Z,23.48
2022-12-05T15:15:13.651Z,24.33
2022-12-05T15:17:51.535Z,25.35
2022-12-05T15:20:52.332Z,25.45
2022-12-05T15:23:57.964Z,25.10
2022-12-05T15:26:55.036Z,24.48
2022-12-05T15:29:40.299Z,24.63
2022-12-05T15:32:11.581Z,24.88
2022-12-05T15:35:04.835Z,24.65
2022-12-05T15:38:06.203Z,25.10
2022-12-05T15:40:37.660Z,22.58
2022-12-05T15:43:32.651Z,21.63
2022-12-05T15:46:23.938Z,21.65
2022-12-05T16:04:09.409Z,20.05
2022-12-05T16:07:10.536Z,20.48
2022-12-05T16:23:56.662Z,19.83
2022-12-05T16:31:44.783Z,17.27
2022-12-05T16:34:17.048Z,17.30
2022-12-05T16:41:22.706Z,18.00
2022-12-05T16:44:53.214Z,19.08
2022-12-05T16:47:46.993Z,19.73
2022-12-05T16:58:34.067Z,19.70
2022-12-05T17:05:25.567Z,20.13
2022-12-05T17:12:03.245Z,19.63
2022-12-05T17:14:42.915Z,19.17
2022-12-05T17:18:19.330Z,19.08
2022-12-05T17:24:46.530Z,17.42
2022-12-05T17:32:13.285Z,16.90
2022-12-05T17:35:26.952Z,16.95
2022-12-05T17:38:39.000Z,16.30
2022-12-05T17:41:46.837Z,16.15
2022-12-05T17:51:10.331Z,17.08
2022-12-05T17:59:40.262Z,17.02
2022-12-05T18:20:11.537Z,17.08
2022-12-05T18:26:41.848Z,17.38
2022-12-05T18:29:20.334Z,16.75
2022-12-05T18:37:14.392Z,16.63
2022-12-05T18:39:42.124Z,16.70
2022-12-05T18:42:15.077Z,16.45
2022-12-05T18:44:43.196Z,16.65
2022-12-05T18:47:10.164Z,16.58
2022-12-05T18:54:19.980Z,17.52
2022-12-05T18:56:50.527Z,18.25
2022-12-05T18:59:51.939Z,17.80
2022-12-05T19:02:19.937Z,18.38
2022-12-05T19:04:47.848Z,22.48
2022-12-05T19:07:16.108Z,20.40
2022-12-05T19:09:43.844Z,20.33
2022-12-05T19:12:11.496Z,20.40
2022-12-05T19:14:41.172Z,20.95
2022-12-05T19:17:09.143Z,20.40
2022-12-05T19:19:37.007Z,23.40
2022-12-05T19:22:05.103Z,23.92
2022-12-05T19:29:40.447Z,24.10
2022-12-05T19:32:16.796Z,24.38
2022-12-05T19:34:46.455Z,25.25
2022-12-05T19:37:13.536Z,25.73
2022-12-05T19:39:40.875Z,25.48
2022-12-05T19:42:08.223Z,24.55
2022-12-05T19:44:35.559Z,25.98
2022-12-05T19:47:02.463Z,25.40
2022-12-05T19:49:29.947Z,25.13
2022-12-05T21:28:16.679Z,31.25
2022-12-05T21:31:45.354Z,28.73
2022-12-05T21:34:29.006Z,28.98
2022-12-05T21:37:32.546Z,30.23
2022-12-05T21:44:40.758Z,33.45
2022-12-05T21:55:48.964Z,32.42
2022-12-05T21:58:53.615Z,36.58
2022-12-05T22:02:17.512Z,30.65
2022-12-05T22:30:12.660Z,29.85
2022-12-05T22:35:04.457Z,33.00
2022-12-05T22:55:00.227Z,35.38
2022-12-05T22:59:23.645Z,35.78
2022-12-05T23:17:27.892Z,32.10
2022-12-05T23:19:59.324Z,35.35
2022-12-05T23:22:26.929Z,35.25
2022-12-05T23:24:55.168Z,35.50
2022-12-05T23:27:24.968Z,34.95
2022-12-05T23:29:59.084Z,33.35
2022-12-05T23:32:32.326Z,31.58
2022-12-05T23:35:09.248Z,30.00
2022-12-05T23:37:37.443Z,31.80
2022-12-05T23:45:50.291Z,34.55
2022-12-05T23:49:38.414Z,39.38
2022-12-05T23:52:59.062Z,36.67
